VJT29 LEIB-LFLY
Flight info
| Callsign | VJT29 |
|---|---|
| Flight time | 1h 18m |
| Altitude | 34000 |
| Route | EPAMA N856 EBROX DCT GEANT DCT NINUN UN871 MEZIN |
| Aircraft | B738/M-SDE2E3FGHIRWXY/LB1 |
Departure
| Time | 2026-05-04 15:38 |
|---|---|
| Airport | Ibiza Airport (LEIB) |
Arrival
| Time | 2026-05-04 16:56 |
|---|---|
| Airport | Lyon Bron Airport (LFLY) |
| Time | Latitude | Longitude | Altitude | Speed | Heading |
|---|---|---|---|---|---|
| 2026-05-04 15:27 | 38.87484 | 1.37077 | 18 ft | 0 kts | 12° |
| 2026-05-04 15:34 | 38.87502 | 1.37084 | 27 ft | 10 kts | 16° |
| 2026-05-04 15:34 | 38.87584 | 1.37145 | 28 ft | 16 kts | 57° |
| 2026-05-04 15:34 | 38.87683 | 1.37382 | 26 ft | 14 kts | 62° |
| 2026-05-04 15:35 | 38.87651 | 1.37511 | 26 ft | 9 kts | 154° |
| 2026-05-04 15:35 | 38.87596 | 1.37548 | 26 ft | 9 kts | 142° |
| 2026-05-04 15:35 | 38.87594 | 1.37612 | 27 ft | 8 kts | 61° |
| 2026-05-04 15:36 | 38.87684 | 1.37827 | 27 ft | 21 kts | 62° |
| 2026-05-04 15:36 | 38.87757 | 1.38002 | 27 ft | 22 kts | 61° |
| 2026-05-04 15:36 | 38.87812 | 1.38133 | 27 ft | 10 kts | 62° |
| 2026-05-04 15:37 | 38.87807 | 1.38197 | 27 ft | 8 kts | 142° |
| 2026-05-04 15:37 | 38.87755 | 1.38224 | 27 ft | 8 kts | 156° |
| 2026-05-04 15:37 | 38.87708 | 1.38254 | 27 ft | 8 kts | 153° |
| 2026-05-04 15:37 | 38.87671 | 1.38252 | 28 ft | 4 kts | 226° |
| 2026-05-04 15:38 | 38.87656 | 1.38213 | 28 ft | 14 kts | 244° |
| 2026-05-04 15:38 | 38.87427 | 1.37664 | 28 ft | 122 kts | 241° |
| 2026-05-04 15:38 | 38.86915 | 1.36401 | 371 ft | 179 kts | 241° |
| 2026-05-04 15:38 | 38.86344 | 1.34945 | 1281 ft | 209 kts | 239° |
| 2026-05-04 15:39 | 38.85546 | 1.33082 | 1668 ft | 249 kts | 242° |
| 2026-05-04 15:39 | 38.84647 | 1.31149 | 2591 ft | 256 kts | 243° |
| 2026-05-04 15:39 | 38.83510 | 1.27383 | 4504 ft | 231 kts | 295° |
| 2026-05-04 15:40 | 38.84758 | 1.26162 | 5547 ft | 232 kts | 332° |
| 2026-05-04 15:40 | 38.86059 | 1.25046 | 6500 ft | 222 kts | 302° |
| 2026-05-04 15:40 | 38.86464 | 1.23230 | 7482 ft | 212 kts | 261° |
| 2026-05-04 15:40 | 38.85993 | 1.21483 | 8476 ft | 211 kts | 247° |
| 2026-05-04 15:41 | 38.85482 | 1.19649 | 9231 ft | 223 kts | 253° |
| 2026-05-04 15:41 | 38.85142 | 1.17664 | 10020 ft | 233 kts | 259° |
| 2026-05-04 15:41 | 38.85006 | 1.15544 | 10760 ft | 245 kts | 266° |
| 2026-05-04 15:41 | 38.84983 | 1.13318 | 11512 ft | 254 kts | 264° |
| 2026-05-04 15:42 | 38.85200 | 1.11024 | 12242 ft | 271 kts | 290° |
| 2026-05-04 15:42 | 38.86443 | 1.09105 | 13038 ft | 295 kts | 320° |
| 2026-05-04 15:42 | 38.88429 | 1.08208 | 13833 ft | 319 kts | 350° |
| 2026-05-04 15:42 | 38.90691 | 1.08611 | 14580 ft | 337 kts | 12° |
| 2026-05-04 15:43 | 38.92177 | 1.09257 | 15076 ft | 343 kts | 15° |
| 2026-05-04 15:43 | 38.94433 | 1.10364 | 15813 ft | 351 kts | 16° |
| 2026-05-04 15:43 | 38.96742 | 1.11503 | 16582 ft | 357 kts | 15° |
| 2026-05-04 15:43 | 38.99093 | 1.12615 | 17370 ft | 362 kts | 14° |
| 2026-05-04 15:44 | 39.01469 | 1.13686 | 18153 ft | 367 kts | 13° |
| 2026-05-04 15:44 | 39.03925 | 1.14749 | 18866 ft | 371 kts | 13° |
| 2026-05-04 15:44 | 39.06366 | 1.15778 | 19564 ft | 374 kts | 12° |
| 2026-05-04 15:44 | 39.08870 | 1.16817 | 20299 ft | 378 kts | 12° |
| 2026-05-04 15:45 | 39.11403 | 1.17859 | 21045 ft | 380 kts | 12° |
| 2026-05-04 15:45 | 39.13927 | 1.18894 | 21808 ft | 382 kts | 11° |
| 2026-05-04 15:45 | 39.16442 | 1.19924 | 22582 ft | 383 kts | 11° |
| 2026-05-04 15:45 | 39.19006 | 1.20974 | 23391 ft | 384 kts | 11° |
| 2026-05-04 15:46 | 39.21533 | 1.22011 | 24079 ft | 383 kts | 11° |
| 2026-05-04 15:46 | 39.24066 | 1.23051 | 24773 ft | 382 kts | 11° |
| 2026-05-04 15:46 | 39.26613 | 1.24097 | 25479 ft | 381 kts | 11° |
| 2026-05-04 15:46 | 39.29117 | 1.25127 | 26211 ft | 378 kts | 11° |
| 2026-05-04 15:47 | 39.31624 | 1.26159 | 26946 ft | 375 kts | 11° |
| 2026-05-04 15:47 | 39.34093 | 1.27175 | 27655 ft | 373 kts | 11° |
| 2026-05-04 15:47 | 39.36565 | 1.28190 | 28130 ft | 378 kts | 11° |
| 2026-05-04 15:47 | 39.39114 | 1.29236 | 28634 ft | 382 kts | 11° |
| 2026-05-04 15:48 | 39.41642 | 1.30276 | 29127 ft | 386 kts | 11° |
| 2026-05-04 15:48 | 39.44194 | 1.31328 | 29632 ft | 389 kts | 11° |
| 2026-05-04 15:48 | 39.49420 | 1.33489 | 30564 ft | 394 kts | 11° |
| 2026-05-04 15:49 | 39.52012 | 1.34563 | 30993 ft | 396 kts | 11° |
| 2026-05-04 15:49 | 39.54665 | 1.35662 | 31443 ft | 398 kts | 11° |
| 2026-05-04 15:49 | 39.57284 | 1.36747 | 31891 ft | 399 kts | 11° |
| 2026-05-04 15:49 | 39.59965 | 1.37759 | 32338 ft | 394 kts | 1° |
| 2026-05-04 15:50 | 39.62614 | 1.37847 | 32699 ft | 380 kts | 345° |
| 2026-05-04 15:50 | 39.65276 | 1.37510 | 32981 ft | 384 kts | 344° |
| 2026-05-04 15:50 | 39.67940 | 1.37116 | 33259 ft | 390 kts | 343° |
| 2026-05-04 15:50 | 39.70676 | 1.36705 | 33546 ft | 395 kts | 344° |
| 2026-05-04 15:51 | 39.73417 | 1.36303 | 33828 ft | 400 kts | 344° |
| 2026-05-04 15:51 | 39.76201 | 1.35909 | 34010 ft | 408 kts | 345° |
| 2026-05-04 15:51 | 39.79054 | 1.35512 | 34005 ft | 420 kts | 345° |
| 2026-05-04 15:51 | 39.82020 | 1.35109 | 34012 ft | 429 kts | 346° |
| 2026-05-04 15:52 | 39.87968 | 1.34331 | 33991 ft | 426 kts | 346° |
| 2026-05-04 15:52 | 39.93812 | 1.33575 | 33991 ft | 421 kts | 346° |
| 2026-05-04 15:53 | 39.99632 | 1.32800 | 33997 ft | 423 kts | 346° |
| 2026-05-04 15:53 | 40.05522 | 1.32012 | 33998 ft | 425 kts | 346° |
| 2026-05-04 15:54 | 40.11394 | 1.31229 | 33985 ft | 426 kts | 346° |
| 2026-05-04 15:54 | 40.17298 | 1.30442 | 33984 ft | 425 kts | 346° |
| 2026-05-04 15:55 | 40.23194 | 1.29653 | 33990 ft | 424 kts | 346° |
| 2026-05-04 15:55 | 40.29019 | 1.28872 | 33983 ft | 422 kts | 346° |
| 2026-05-04 15:56 | 40.34858 | 1.28087 | 33987 ft | 421 kts | 346° |
| 2026-05-04 15:56 | 40.40693 | 1.27301 | 33984 ft | 421 kts | 346° |
| 2026-05-04 15:57 | 40.46507 | 1.26514 | 33996 ft | 421 kts | 346° |
| 2026-05-04 15:57 | 40.52339 | 1.25723 | 33995 ft | 422 kts | 346° |
| 2026-05-04 15:58 | 40.58175 | 1.24931 | 33992 ft | 423 kts | 346° |
| 2026-05-04 15:58 | 40.64048 | 1.24133 | 33990 ft | 424 kts | 346° |
| 2026-05-04 15:59 | 40.69946 | 1.23436 | 33978 ft | 431 kts | 355° |
| 2026-05-04 15:59 | 40.72917 | 1.24152 | 33989 ft | 445 kts | 15° |
| 2026-05-04 15:59 | 40.75822 | 1.25678 | 34001 ft | 447 kts | 18° |
| 2026-05-04 16:00 | 40.81552 | 1.28962 | 33993 ft | 449 kts | 19° |
| 2026-05-04 16:00 | 40.87258 | 1.32248 | 34000 ft | 450 kts | 19° |
| 2026-05-04 16:01 | 40.93032 | 1.35512 | 34006 ft | 450 kts | 19° |
| 2026-05-04 16:01 | 40.98810 | 1.38748 | 34010 ft | 450 kts | 19° |
| 2026-05-04 16:02 | 41.04567 | 1.41969 | 34008 ft | 449 kts | 19° |
| 2026-05-04 16:03 | 41.13183 | 1.46804 | 34021 ft | 449 kts | 19° |
| 2026-05-04 16:03 | 41.18950 | 1.50049 | 34014 ft | 449 kts | 19° |
| 2026-05-04 16:04 | 41.24670 | 1.53274 | 34000 ft | 449 kts | 19° |
| 2026-05-04 16:04 | 41.33316 | 1.58161 | 33997 ft | 450 kts | 19° |
| 2026-05-04 16:05 | 41.39061 | 1.61417 | 34009 ft | 449 kts | 19° |
| 2026-05-04 16:06 | 41.47696 | 1.66322 | 33994 ft | 449 kts | 19° |
| 2026-05-04 16:07 | 41.59170 | 1.72860 | 34006 ft | 449 kts | 19° |
| 2026-05-04 16:08 | 41.70647 | 1.79426 | 33996 ft | 448 kts | 19° |
| 2026-05-04 16:09 | 41.84936 | 1.87638 | 33998 ft | 446 kts | 19° |
| 2026-05-04 16:10 | 41.96311 | 1.94202 | 33994 ft | 446 kts | 20° |
| 2026-05-04 16:11 | 42.07715 | 2.00810 | 34002 ft | 445 kts | 20° |
| 2026-05-04 16:12 | 42.24721 | 2.10712 | 34007 ft | 444 kts | 20° |
| 2026-05-04 16:13 | 42.36014 | 2.17321 | 33993 ft | 442 kts | 20° |
| 2026-05-04 16:14 | 42.47353 | 2.23905 | 33985 ft | 443 kts | 19° |
| 2026-05-04 16:16 | 42.61650 | 2.31778 | 33974 ft | 444 kts | 19° |
| 2026-05-04 16:17 | 42.75903 | 2.39725 | 33993 ft | 441 kts | 19° |
| 2026-05-04 16:18 | 42.87195 | 2.46054 | 34002 ft | 439 kts | 19° |
| 2026-05-04 16:19 | 43.01335 | 2.54013 | 34001 ft | 440 kts | 20° |
| 2026-05-04 16:20 | 43.15453 | 2.62000 | 34012 ft | 438 kts | 20° |
| 2026-05-04 16:22 | 43.29550 | 2.70014 | 33991 ft | 438 kts | 20° |
| 2026-05-04 16:23 | 43.46402 | 2.79649 | 33999 ft | 439 kts | 20° |
| 2026-05-04 16:25 | 43.63334 | 2.89387 | 34011 ft | 441 kts | 20° |
| 2026-05-04 16:26 | 43.83158 | 3.00867 | 34035 ft | 441 kts | 20° |
| 2026-05-04 16:28 | 43.96340 | 3.08545 | 34052 ft | 441 kts | 20° |
| 2026-05-04 16:29 | 44.16125 | 3.20142 | 34039 ft | 438 kts | 19° |
| 2026-05-04 16:31 | 44.30158 | 3.28417 | 34030 ft | 437 kts | 19° |
| 2026-05-04 16:32 | 44.46884 | 3.38337 | 34052 ft | 437 kts | 20° |
| 2026-05-04 16:33 | 44.58096 | 3.45022 | 34074 ft | 438 kts | 20° |
| 2026-05-04 16:34 | 44.63608 | 3.48817 | 34044 ft | 442 kts | 32° |
| 2026-05-04 16:34 | 44.66070 | 3.51336 | 34056 ft | 442 kts | 37° |
| 2026-05-04 16:35 | 44.73343 | 3.59559 | 32737 ft | 445 kts | 37° |
| 2026-05-04 16:35 | 44.80617 | 3.67403 | 31361 ft | 437 kts | 35° |
| 2026-05-04 16:36 | 44.83066 | 3.69981 | 30917 ft | 435 kts | 35° |
| 2026-05-04 16:36 | 44.87917 | 3.75072 | 30061 ft | 439 kts | 35° |
| 2026-05-04 16:37 | 44.92837 | 3.80244 | 29065 ft | 444 kts | 36° |
| 2026-05-04 16:37 | 44.95323 | 3.82865 | 28502 ft | 445 kts | 36° |
| 2026-05-04 16:37 | 45.00275 | 3.88098 | 27396 ft | 445 kts | 36° |
| 2026-05-04 16:38 | 45.05214 | 3.93330 | 26321 ft | 442 kts | 36° |
| 2026-05-04 16:39 | 45.12587 | 4.01162 | 24785 ft | 440 kts | 37° |
| 2026-05-04 16:39 | 45.17457 | 4.06350 | 23803 ft | 434 kts | 37° |
| 2026-05-04 16:40 | 45.22248 | 4.11464 | 22702 ft | 428 kts | 37° |
| 2026-05-04 16:40 | 45.26974 | 4.16520 | 21592 ft | 421 kts | 37° |
| 2026-05-04 16:41 | 45.31538 | 4.21413 | 20515 ft | 405 kts | 37° |
| 2026-05-04 16:41 | 45.38062 | 4.28424 | 18901 ft | 380 kts | 38° |
| 2026-05-04 16:42 | 45.44240 | 4.35083 | 17216 ft | 362 kts | 37° |
| 2026-05-04 16:43 | 45.48186 | 4.39348 | 16091 ft | 352 kts | 37° |
| 2026-05-04 16:43 | 45.52053 | 4.43533 | 15010 ft | 345 kts | 37° |
| 2026-05-04 16:43 | 45.53951 | 4.45590 | 14476 ft | 340 kts | 37° |
| 2026-05-04 16:44 | 45.61256 | 4.53523 | 12334 ft | 319 kts | 37° |
| 2026-05-04 16:45 | 45.64716 | 4.57289 | 11392 ft | 308 kts | 37° |
| 2026-05-04 16:46 | 45.70328 | 4.60972 | 10311 ft | 288 kts | 8° |
| 2026-05-04 16:46 | 45.74217 | 4.61239 | 9651 ft | 272 kts | 358° |
| 2026-05-04 16:47 | 45.77925 | 4.61177 | 8969 ft | 263 kts | 358° |
| 2026-05-04 16:47 | 45.81510 | 4.61106 | 8446 ft | 252 kts | 357° |
| 2026-05-04 16:48 | 45.86591 | 4.61448 | 7636 ft | 233 kts | 2° |
| 2026-05-04 16:48 | 45.88185 | 4.61686 | 7320 ft | 227 kts | 15° |
| 2026-05-04 16:49 | 45.89722 | 4.64940 | 6659 ft | 199 kts | 97° |
| 2026-05-04 16:49 | 45.89914 | 4.68947 | 5971 ft | 200 kts | 90° |
| 2026-05-04 16:50 | 45.90216 | 4.72855 | 5359 ft | 196 kts | 91° |
| 2026-05-04 16:50 | 45.90528 | 4.76678 | 4874 ft | 190 kts | 91° |
| 2026-05-04 16:51 | 45.90837 | 4.80412 | 4408 ft | 188 kts | 92° |
| 2026-05-04 16:51 | 45.90991 | 4.82285 | 4184 ft | 189 kts | 92° |
| 2026-05-04 16:51 | 45.90857 | 4.85999 | 3646 ft | 183 kts | 133° |
| 2026-05-04 16:52 | 45.88741 | 4.87564 | 3173 ft | 174 kts | 167° |
| 2026-05-04 16:52 | 45.87591 | 4.88062 | 2938 ft | 175 kts | 167° |
| 2026-05-04 16:53 | 45.85217 | 4.89081 | 2469 ft | 179 kts | 166° |
| 2026-05-04 16:53 | 45.81565 | 4.90648 | 1880 ft | 179 kts | 165° |
| 2026-05-04 16:54 | 45.80413 | 4.91145 | 1870 ft | 166 kts | 166° |
| 2026-05-04 16:55 | 45.76889 | 4.92655 | 1702 ft | 117 kts | 166° |
| 2026-05-04 16:55 | 45.75233 | 4.93361 | 1152 ft | 125 kts | 163° |
| 2026-05-04 16:56 | 45.73645 | 4.94029 | 737 ft | 114 kts | 161° |
| 2026-05-04 16:56 | 45.72104 | 4.94685 | 667 ft | 39 kts | 165° |
| 2026-05-04 16:57 | 45.71960 | 4.94728 | 668 ft | 14 kts | 192° |
| 2026-05-04 16:57 | 45.71922 | 4.94570 | 668 ft | 8 kts | 300° |
| 2026-05-04 16:58 | 45.72090 | 4.94471 | 667 ft | 10 kts | 343° |
| 2026-05-04 16:58 | 45.72160 | 4.94440 | 666 ft | 11 kts | 343° |
| 2026-05-04 16:59 | 45.72319 | 4.94370 | 662 ft | 13 kts | 339° |
| 2026-05-04 17:00 | 45.72666 | 4.94182 | 661 ft | 15 kts | 343° |
| 2026-05-04 17:00 | 45.72934 | 4.94011 | 658 ft | 10 kts | 282° |
| 2026-05-04 17:01 | 45.72971 | 4.93936 | 658 ft | 0 kts | 344° |